createdAt,value
2023-01-07T00:00:25.592Z,95.62
2023-01-07T00:05:25.502Z,95.21
2023-01-07T00:10:25.461Z,95.21
2023-01-07T00:15:25.330Z,95.41
2023-01-07T00:20:25.458Z,95.21
2023-01-07T00:25:25.179Z,95.21
2023-01-07T00:30:25.206Z,95.00
2023-01-07T00:35:25.095Z,94.80
2023-01-07T00:40:25.016Z,94.80
2023-01-07T00:45:24.947Z,94.59
2023-01-07T00:50:24.871Z,94.70
2023-01-07T00:55:24.787Z,94.59
2023-01-07T01:00:24.755Z,94.49
2023-01-07T01:05:44.103Z,94.08
2023-01-07T01:10:36.500Z,94.49
2023-01-07T01:15:36.438Z,94.49
2023-01-07T01:20:36.352Z,94.59
2023-01-07T01:25:36.338Z,94.39
2023-01-07T01:30:36.255Z,94.59
2023-01-07T01:35:36.186Z,94.39
2023-01-07T01:40:36.095Z,94.49
2023-01-07T01:45:36.016Z,94.39
2023-01-07T01:50:35.934Z,94.39
2023-01-07T01:55:35.911Z,94.49
2023-01-07T02:00:35.963Z,94.39
2023-01-07T02:05:35.769Z,94.59
2023-01-07T02:10:35.670Z,94.70
2023-01-07T02:15:35.712Z,94.80
2023-01-07T02:20:36.426Z,94.70
2023-01-07T02:25:35.512Z,94.49
2023-01-07T02:30:35.445Z,94.74
2023-01-07T02:35:35.370Z,94.74
2023-01-07T02:40:35.270Z,94.74
2023-01-07T02:45:35.270Z,94.74
2023-01-07T02:50:35.155Z,94.95
2023-01-07T02:55:35.208Z,95.05
2023-01-07T03:00:35.077Z,94.84
2023-01-07T03:05:35.021Z,94.84
2023-01-07T03:10:34.907Z,94.64
2023-01-07T03:15:34.830Z,95.05
2023-01-07T03:20:34.755Z,94.64
2023-01-07T03:25:34.709Z,94.43
2023-01-07T03:30:34.641Z,94.33
2023-01-07T03:35:34.586Z,94.12
2023-01-07T03:40:34.488Z,94.02
2023-01-07T03:45:34.505Z,94.23
2023-01-07T03:50:34.334Z,94.12
2023-01-07T03:55:34.313Z,93.62
2023-01-07T04:00:34.202Z,93.76
2023-01-07T04:05:34.139Z,93.76
2023-01-07T04:10:34.087Z,93.45
2023-01-07T04:15:34.008Z,93.35
2023-01-07T04:20:33.920Z,93.35
2023-01-07T04:25:33.879Z,93.25
2023-01-07T04:30:33.841Z,93.04
2023-01-07T04:35:33.730Z,92.94
2023-01-07T04:40:33.643Z,93.35
2023-01-07T04:45:33.601Z,92.94
2023-01-07T04:50:33.511Z,92.94
2023-01-07T04:55:33.454Z,92.43
2023-01-07T05:00:33.373Z,92.74
2023-01-07T05:05:33.352Z,92.12
2023-01-07T05:10:33.256Z,91.91
2023-01-07T05:15:47.810Z,91.96
2023-01-07T05:20:40.212Z,92.27
2023-01-07T05:25:40.187Z,92.36
2023-01-07T05:30:40.170Z,92.57
2023-01-07T05:35:39.989Z,92.47
2023-01-07T05:40:40.060Z,92.36
2023-01-07T05:45:39.901Z,92.88
2023-01-07T05:50:39.817Z,92.47
2023-01-07T05:55:39.725Z,92.68
2023-01-07T06:00:39.654Z,92.68
2023-01-07T06:05:39.595Z,92.88
2023-01-07T06:10:39.551Z,92.78
2023-01-07T06:15:39.540Z,92.93
2023-01-07T06:20:39.396Z,93.23
2023-01-07T06:25:39.356Z,93.44
2023-01-07T06:30:39.263Z,93.64
2023-01-07T06:35:39.194Z,93.44
2023-01-07T06:40:39.196Z,93.54
2023-01-07T06:45:41.357Z,93.44
2023-01-07T06:50:38.989Z,93.74
2023-01-07T06:55:38.936Z,93.74
2023-01-07T07:00:38.862Z,93.85
2023-01-07T07:05:38.820Z,93.85
2023-01-07T07:10:38.733Z,93.64
2023-01-07T07:15:38.699Z,93.64
2023-01-07T07:20:38.577Z,93.13
2023-01-07T07:25:38.514Z,92.93
2023-01-07T07:30:47.371Z,92.61
2023-01-07T07:35:39.380Z,92.41
2023-01-07T07:40:40.064Z,92.31
2023-01-07T07:45:38.239Z,92.00
2023-01-07T07:50:38.184Z,91.69
2023-01-07T07:55:38.122Z,91.59
2023-01-07T08:00:38.060Z,91.59
2023-01-07T08:05:37.965Z,91.35
2023-01-07T08:10:37.933Z,91.35
2023-01-07T08:15:37.841Z,91.24
2023-01-07T08:20:37.780Z,90.93
2023-01-07T08:25:37.714Z,90.83
2023-01-07T08:30:37.659Z,90.73
2023-01-07T08:35:37.576Z,90.42
2023-01-07T08:40:37.592Z,90.73
2023-01-07T08:45:37.458Z,89.70
2023-01-07T08:50:37.392Z,89.60
2023-01-07T08:55:37.321Z,89.19
2023-01-07T09:00:37.318Z,88.88
2023-01-07T09:05:37.167Z,88.12
2023-01-07T09:10:39.013Z,87.51
2023-01-07T09:15:37.027Z,86.79
2023-01-07T09:20:36.978Z,86.38
2023-01-07T09:25:36.965Z,86.14
2023-01-07T09:30:36.840Z,85.52
2023-01-07T09:35:36.797Z,85.11
2023-01-07T09:40:36.731Z,84.91
2023-01-07T09:45:36.698Z,84.70
2023-01-07T09:50:36.585Z,84.60
2023-01-07T09:55:36.519Z,84.56
2023-01-07T10:00:36.450Z,84.56
2023-01-07T10:05:36.359Z,83.95
2023-01-07T10:10:36.286Z,83.91
2023-01-07T10:15:36.327Z,83.60
2023-01-07T10:20:36.187Z,82.48
2023-01-07T10:25:36.087Z,81.96
2023-01-07T10:30:36.092Z,80.69
2023-01-07T10:35:35.960Z,81.31
2023-01-07T10:40:35.900Z,80.19
2023-01-07T10:45:35.934Z,79.68
2023-01-07T10:50:35.753Z,79.02
2023-01-07T10:55:35.710Z,75.71
2023-01-07T11:00:35.648Z,76.36
2023-01-07T11:05:35.561Z,75.89
2023-01-07T11:10:35.574Z,76.16
2023-01-07T11:15:35.439Z,76.06
2023-01-07T11:20:35.489Z,76.06
2023-01-07T11:25:35.313Z,74.73
2023-01-07T11:30:35.237Z,73.94
2023-01-07T11:35:35.144Z,74.79
2023-01-07T11:40:35.136Z,75.75
2023-01-07T11:45:35.146Z,75.99
2023-01-07T11:50:34.953Z,76.29
2023-01-07T11:55:34.889Z,76.40
2023-01-07T12:00:34.831Z,76.53
2023-01-07T12:05:34.735Z,76.74
2023-01-07T12:10:34.689Z,76.64
2023-01-07T12:15:34.606Z,76.84
2023-01-07T12:20:34.537Z,77.15
2023-01-07T12:25:34.632Z,77.25
2023-01-07T12:30:34.431Z,76.53
2023-01-07T12:35:34.376Z,76.64
2023-01-07T12:40:34.267Z,76.53
2023-01-07T12:45:35.473Z,76.64
2023-01-07T12:50:35.724Z,76.74
2023-01-07T12:55:34.082Z,76.64
2023-01-07T13:00:34.021Z,77.25
2023-01-07T13:05:34.748Z,77.04
2023-01-07T13:10:33.899Z,76.74
2023-01-07T13:15:33.930Z,77.70
2023-01-07T13:20:33.746Z,77.59
2023-01-07T13:25:33.753Z,77.49
2023-01-07T13:30:33.608Z,77.08
2023-01-07T13:35:33.538Z,77.80
2023-01-07T13:40:33.473Z,78.14
2023-01-07T13:45:33.412Z,78.24
2023-01-07T13:50:33.328Z,77.94
2023-01-07T13:55:33.282Z,78.34
2023-01-07T14:00:33.210Z,78.04
2023-01-07T14:05:33.166Z,77.94
2023-01-07T14:10:34.135Z,77.73
2023-01-07T14:15:33.068Z,76.91
2023-01-07T14:20:32.956Z,76.91
2023-01-07T14:25:32.963Z,75.68
2023-01-07T14:30:32.761Z,74.46
2023-01-07T14:35:32.720Z,73.94
2023-01-07T14:40:32.678Z,73.44
2023-01-07T14:45:32.631Z,73.33
2023-01-07T14:50:32.518Z,73.64
2023-01-07T14:55:32.475Z,73.54
2023-01-07T15:00:32.387Z,74.29
2023-01-07T15:05:32.317Z,74.49
2023-01-07T15:10:32.249Z,75.42
2023-01-07T15:15:32.227Z,75.01
2023-01-07T15:20:32.132Z,75.21
2023-01-07T15:25:32.949Z,75.31
2023-01-07T15:30:31.996Z,75.86
2023-01-07T15:35:31.940Z,75.86
2023-01-07T15:40:31.842Z,76.57
2023-01-07T15:45:31.806Z,76.17
2023-01-07T15:50:31.706Z,76.68
2023-01-07T15:55:31.668Z,76.88
2023-01-07T16:00:31.573Z,77.12
2023-01-07T16:05:31.866Z,77.43
2023-01-07T16:10:31.464Z,77.64
2023-01-07T16:15:31.376Z,78.05
2023-01-07T16:20:31.319Z,78.35
2023-01-07T16:25:31.262Z,78.56
2023-01-07T16:30:31.172Z,78.56
2023-01-07T16:35:31.146Z,78.86
2023-01-07T16:40:31.032Z,79.27
2023-01-07T16:45:30.974Z,79.82
2023-01-07T16:50:30.956Z,80.33
2023-01-07T16:55:30.857Z,81.29
2023-01-07T17:00:30.805Z,81.60
2023-01-07T17:05:30.736Z,81.85
2023-01-07T17:10:30.632Z,82.05
2023-01-07T17:15:30.559Z,82.46
2023-01-07T17:20:30.574Z,82.36
2023-01-07T17:25:30.475Z,82.36
2023-01-07T17:30:30.411Z,82.67
2023-01-07T17:35:30.279Z,82.36
2023-01-07T17:40:30.239Z,82.46
2023-01-07T17:45:30.187Z,82.26
2023-01-07T17:50:30.110Z,82.77
2023-01-07T17:55:30.047Z,82.77
2023-01-07T18:00:29.965Z,83.18
2023-01-07T18:05:29.908Z,83.59
2023-01-07T18:10:29.839Z,83.07
2023-01-07T18:15:29.773Z,83.39
2023-01-07T18:20:29.802Z,83.28
2023-01-07T18:25:29.685Z,83.59
2023-01-07T18:30:29.623Z,83.49
2023-01-07T18:35:29.534Z,83.39
2023-01-07T18:40:29.449Z,83.18
2023-01-07T18:45:29.382Z,82.93
2023-01-07T18:50:29.286Z,82.73
2023-01-07T18:55:29.238Z,82.08
2023-01-07T19:00:29.973Z,81.87
2023-01-07T19:05:29.078Z,81.15
2023-01-07T19:10:29.029Z,80.85
2023-01-07T19:15:28.966Z,80.23
2023-01-07T19:20:28.927Z,80.40
2023-01-07T19:25:28.917Z,80.44
2023-01-07T19:30:28.843Z,80.03
2023-01-07T19:35:28.725Z,79.79
2023-01-07T19:40:28.630Z,79.89
2023-01-07T19:45:28.605Z,80.09
2023-01-07T19:50:28.502Z,80.40
2023-01-07T19:55:28.462Z,80.51
2023-01-07T20:00:28.373Z,80.19
2023-01-07T20:05:28.989Z,80.40
2023-01-07T20:10:28.230Z,80.71
2023-01-07T20:15:28.178Z,80.81
2023-01-07T20:20:28.109Z,82.24
2023-01-07T20:25:28.061Z,81.98
2023-01-07T20:30:27.921Z,82.39
2023-01-07T20:35:27.908Z,82.69
2023-01-07T20:40:27.809Z,81.12
2023-01-07T20:45:27.796Z,81.73
2023-01-07T20:50:27.707Z,83.06
2023-01-07T20:55:27.657Z,82.96
2023-01-07T21:00:27.581Z,82.96
2023-01-07T21:05:27.504Z,82.76
2023-01-07T21:10:27.415Z,83.27
2023-01-07T21:15:27.465Z,84.03
2023-01-07T21:20:27.647Z,83.61
2023-01-07T21:25:27.260Z,84.53
2023-01-07T21:30:27.153Z,85.36
2023-01-07T21:35:27.078Z,84.84
2023-01-07T21:40:27.033Z,85.97
2023-01-07T21:45:26.973Z,86.18
2023-01-07T21:50:27.204Z,86.79
2023-01-07T21:55:26.822Z,86.32
2023-01-07T22:00:26.745Z,85.46
2023-01-07T22:05:26.687Z,85.56
2023-01-07T22:10:26.612Z,85.77
2023-01-07T22:15:26.542Z,86.28
2023-01-07T22:20:26.451Z,86.79
2023-01-07T22:25:26.439Z,85.56
2023-01-07T22:30:26.305Z,85.77
2023-01-07T22:35:27.542Z,85.77
2023-01-07T22:40:26.219Z,85.97
2023-01-07T22:45:26.122Z,86.38
2023-01-07T22:50:26.111Z,86.07
2023-01-07T22:55:26.002Z,86.58
2023-01-07T23:00:25.927Z,86.58
2023-01-07T23:05:25.902Z,87.41
2023-01-07T23:10:25.872Z,88.29
2023-01-07T23:15:25.753Z,88.59
2023-01-07T23:20:25.656Z,89.72
2023-01-07T23:25:25.632Z,90.64
2023-01-07T23:30:25.522Z,91.16
2023-01-07T23:35:25.432Z,91.67
2023-01-07T23:40:25.373Z,91.97
2023-01-07T23:45:25.739Z,92.18
2023-01-07T23:50:25.262Z,92.18
2023-01-07T23:55:25.181Z,91.97
